sensor_id;sensor_type;location;lat;lon;timestamp;pressure;altitude;pressure_sealevel;temperature;humidity
46241;BME280;31961;52.416;-0.732;2023-03-14T00:00:51;97840.31;;;2.30;100.00
46241;BME280;31961;52.416;-0.732;2023-03-14T00:03:18;97838.02;;;2.48;100.00
46241;BME280;31961;52.416;-0.732;2023-03-14T00:05:46;97842.09;;;2.13;100.00
46241;BME280;31961;52.416;-0.732;2023-03-14T00:08:13;97848.18;;;2.50;100.00
46241;BME280;31961;52.416;-0.732;2023-03-14T00:10:41;97853.43;;;2.44;100.00
46241;BME280;31961;52.416;-0.732;2023-03-14T00:13:08;97856.81;;;2.66;100.00
46241;BME280;31961;52.416;-0.732;2023-03-14T00:15:36;97862.37;;;2.21;100.00
46241;BME280;31961;52.416;-0.732;2023-03-14T00:18:04;97862.16;;;2.17;100.00
46241;BME280;31961;52.416;-0.732;2023-03-14T00:20:31;97867.98;;;2.17;100.00
46241;BME280;31961;52.416;-0.732;2023-03-14T00:22:59;97877.69;;;2.50;100.00
46241;BME280;31961;52.416;-0.732;2023-03-14T00:25:26;97882.18;;;2.24;100.00
46241;BME280;31961;52.416;-0.732;2023-03-14T00:27:54;97891.13;;;2.19;100.00
46241;BME280;31961;52.416;-0.732;2023-03-14T00:30:21;97889.08;;;2.13;100.00
46241;BME280;31961;52.416;-0.732;2023-03-14T00:32:49;97895.13;;;2.03;100.00
46241;BME280;31961;52.416;-0.732;2023-03-14T00:35:17;97901.44;;;2.20;100.00
46241;BME280;31961;52.416;-0.732;2023-03-14T00:37:44;97906.30;;;2.35;100.00
46241;BME280;31961;52.416;-0.732;2023-03-14T00:40:12;97921.71;;;1.94;100.00
46241;BME280;31961;52.416;-0.732;2023-03-14T00:42:39;97922.61;;;1.61;100.00
46241;BME280;31961;52.416;-0.732;2023-03-14T00:45:08;97922.40;;;1.74;100.00
46241;BME280;31961;52.416;-0.732;2023-03-14T00:47:35;97930.67;;;1.89;100.00
46241;BME280;31961;52.416;-0.732;2023-03-14T00:50:03;97930.70;;;1.80;100.00
46241;BME280;31961;52.416;-0.732;2023-03-14T00:52:30;97932.97;;;1.96;100.00
46241;BME280;31961;52.416;-0.732;2023-03-14T00:54:58;97937.37;;;1.99;100.00
46241;BME280;31961;52.416;-0.732;2023-03-14T00:57:25;97944.90;;;2.13;100.00
46241;BME280;31961;52.416;-0.732;2023-03-14T00:59:53;97962.33;;;1.65;100.00
46241;BME280;31961;52.416;-0.732;2023-03-14T01:02:20;97973.17;;;1.47;100.00
46241;BME280;31961;52.416;-0.732;2023-03-14T01:04:48;97976.31;;;1.36;100.00
46241;BME280;31961;52.416;-0.732;2023-03-14T01:07:16;97987.43;;;1.64;100.00
46241;BME280;31961;52.416;-0.732;2023-03-14T01:09:44;97995.23;;;1.57;100.00
46241;BME280;31961;52.416;-0.732;2023-03-14T01:12:11;97993.87;;;1.93;100.00
46241;BME280;31961;52.416;-0.732;2023-03-14T01:14:38;97995.50;;;1.53;100.00
46241;BME280;31961;52.416;-0.732;2023-03-14T01:17:06;98004.95;;;1.58;100.00
46241;BME280;31961;52.416;-0.732;2023-03-14T01:19:34;98002.74;;;1.43;100.00
46241;BME280;31961;52.416;-0.732;2023-03-14T01:22:01;98006.73;;;1.68;100.00
46241;BME280;31961;52.416;-0.732;2023-03-14T01:24:29;98010.75;;;1.53;100.00
46241;BME280;31961;52.416;-0.732;2023-03-14T01:26:56;98018.05;;;1.55;100.00
46241;BME280;31961;52.416;-0.732;2023-03-14T01:29:24;98020.91;;;1.82;100.00
46241;BME280;31961;52.416;-0.732;2023-03-14T01:31:51;98028.40;;;1.79;100.00
46241;BME280;31961;52.416;-0.732;2023-03-14T01:34:19;98035.47;;;1.47;100.00
46241;BME280;31961;52.416;-0.732;2023-03-14T01:36:47;98042.03;;;1.30;100.00
46241;BME280;31961;52.416;-0.732;2023-03-14T01:39:14;98042.69;;;0.95;100.00
46241;BME280;31961;52.416;-0.732;2023-03-14T01:41:42;98041.90;;;1.60;100.00
46241;BME280;31961;52.416;-0.732;2023-03-14T01:44:10;98080.56;;;1.07;100.00
46241;BME280;31961;52.416;-0.732;2023-03-14T01:46:39;98053.64;;;1.49;100.00
46241;BME280;31961;52.416;-0.732;2023-03-14T01:49:13;98056.97;;;1.05;100.00
46241;BME280;31961;52.416;-0.732;2023-03-14T01:51:46;98061.10;;;0.91;100.00
46241;BME280;31961;52.416;-0.732;2023-03-14T01:54:19;98065.24;;;1.23;100.00
46241;BME280;31961;52.416;-0.732;2023-03-14T01:56:53;98070.92;;;0.58;100.00
46241;BME280;31961;52.416;-0.732;2023-03-14T01:59:22;98080.83;;;0.90;100.00
46241;BME280;31961;52.416;-0.732;2023-03-14T02:01:51;98096.58;;;1.21;100.00
46241;BME280;31961;52.416;-0.732;2023-03-14T02:04:19;98093.70;;;0.91;100.00
46241;BME280;31961;52.416;-0.732;2023-03-14T02:06:52;98102.45;;;0.77;100.00
46241;BME280;31961;52.416;-0.732;2023-03-14T02:09:21;98110.41;;;0.88;100.00
46241;BME280;31961;52.416;-0.732;2023-03-14T02:11:49;98116.08;;;0.81;100.00
46241;BME280;31961;52.416;-0.732;2023-03-14T02:14:28;98126.79;;;0.71;100.00
46241;BME280;31961;52.416;-0.732;2023-03-14T02:16:56;98132.82;;;0.78;100.00
46241;BME280;31961;52.416;-0.732;2023-03-14T02:19:34;98148.86;;;0.74;100.00
46241;BME280;31961;52.416;-0.732;2023-03-14T02:22:08;98158.30;;;0.56;100.00
46241;BME280;31961;52.416;-0.732;2023-03-14T02:24:41;98170.95;;;0.89;100.00
46241;BME280;31961;52.416;-0.732;2023-03-14T02:27:12;98174.63;;;0.60;100.00
46241;BME280;31961;52.416;-0.732;2023-03-14T02:29:47;98172.74;;;0.77;100.00
46241;BME280;31961;52.416;-0.732;2023-03-14T02:32:17;98170.08;;;0.53;100.00
46241;BME280;31961;52.416;-0.732;2023-03-14T02:34:49;98179.27;;;0.40;100.00
46241;BME280;31961;52.416;-0.732;2023-03-14T02:37:19;98177.61;;;0.70;100.00
46241;BME280;31961;52.416;-0.732;2023-03-14T02:39:48;98184.55;;;0.51;100.00
46241;BME280;31961;52.416;-0.732;2023-03-14T02:42:15;98193.31;;;0.29;100.00
46241;BME280;31961;52.416;-0.732;2023-03-14T02:44:53;98201.16;;;0.19;100.00
46241;BME280;31961;52.416;-0.732;2023-03-14T02:47:24;98201.84;;;0.28;100.00
46241;BME280;31961;52.416;-0.732;2023-03-14T02:50:01;98210.43;;;0.44;100.00
46241;BME280;31961;52.416;-0.732;2023-03-14T02:52:30;98214.74;;;0.32;100.00
46241;BME280;31961;52.416;-0.732;2023-03-14T02:54:58;98225.91;;;0.67;100.00
46241;BME280;31961;52.416;-0.732;2023-03-14T02:57:25;98228.70;;;-0.03;100.00
46241;BME280;31961;52.416;-0.732;2023-03-14T02:59:52;98239.22;;;0.06;100.00
46241;BME280;31961;52.416;-0.732;2023-03-14T03:02:20;98248.19;;;-0.04;100.00
46241;BME280;31961;52.416;-0.732;2023-03-14T03:04:48;98254.95;;;0.16;100.00
46241;BME280;31961;52.416;-0.732;2023-03-14T03:07:15;98254.52;;;0.36;100.00
46241;BME280;31961;52.416;-0.732;2023-03-14T03:09:43;98271.59;;;0.05;100.00
46241;BME280;31961;52.416;-0.732;2023-03-14T03:12:10;98273.02;;;0.05;100.00
46241;BME280;31961;52.416;-0.732;2023-03-14T03:14:38;98280.99;;;-0.02;100.00
46241;BME280;31961;52.416;-0.732;2023-03-14T03:17:06;98281.27;;;-0.26;100.00
46241;BME280;31961;52.416;-0.732;2023-03-14T03:19:34;98290.28;;;-0.07;100.00
46241;BME280;31961;52.416;-0.732;2023-03-14T03:22:02;98298.89;;;-0.39;100.00
46241;BME280;31961;52.416;-0.732;2023-03-14T03:24:29;98310.85;;;-0.32;100.00
46241;BME280;31961;52.416;-0.732;2023-03-14T03:26:57;98322.00;;;-0.36;100.00
46241;BME280;31961;52.416;-0.732;2023-03-14T03:29:24;98317.79;;;-0.48;100.00
46241;BME280;31961;52.416;-0.732;2023-03-14T03:31:52;98324.90;;;-0.04;100.00
46241;BME280;31961;52.416;-0.732;2023-03-14T03:34:20;98334.80;;;-0.27;100.00
46241;BME280;31961;52.416;-0.732;2023-03-14T03:36:47;98344.74;;;-0.29;100.00
46241;BME280;31961;52.416;-0.732;2023-03-14T03:39:15;98344.98;;;-0.04;100.00
46241;BME280;31961;52.416;-0.732;2023-03-14T03:41:42;98354.31;;;-0.48;100.00
46241;BME280;31961;52.416;-0.732;2023-03-14T03:44:10;98356.12;;;-0.50;100.00
46241;BME280;31961;52.416;-0.732;2023-03-14T03:46:37;98364.73;;;0.04;100.00
46241;BME280;31961;52.416;-0.732;2023-03-14T03:49:04;98379.49;;;-0.45;100.00
46241;BME280;31961;52.416;-0.732;2023-03-14T03:51:32;98384.89;;;-0.81;100.00
46241;BME280;31961;52.416;-0.732;2023-03-14T03:53:59;98389.48;;;-1.00;100.00
46241;BME280;31961;52.416;-0.732;2023-03-14T03:56:25;98396.63;;;-0.58;100.00
46241;BME280;31961;52.416;-0.732;2023-03-14T03:58:53;98401.82;;;-0.85;100.00
46241;BME280;31961;52.416;-0.732;2023-03-14T04:01:21;98406.41;;;-0.74;100.00
46241;BME280;31961;52.416;-0.732;2023-03-14T04:03:48;98412.74;;;-1.12;100.00
46241;BME280;31961;52.416;-0.732;2023-03-14T04:06:16;98416.51;;;-0.63;100.00
46241;BME280;31961;52.416;-0.732;2023-03-14T04:08:44;98419.67;;;-1.14;100.00
46241;BME280;31961;52.416;-0.732;2023-03-14T04:11:11;98434.32;;;-1.24;100.00
46241;BME280;31961;52.416;-0.732;2023-03-14T04:13:39;98439.98;;;-1.09;100.00
46241;BME280;31961;52.416;-0.732;2023-03-14T04:16:13;98449.34;;;-0.71;100.00
46241;BME280;31961;52.416;-0.732;2023-03-14T04:18:41;98459.26;;;-1.22;100.00
46241;BME280;31961;52.416;-0.732;2023-03-14T04:21:09;98467.93;;;-1.42;100.00
46241;BME280;31961;52.416;-0.732;2023-03-14T04:23:36;98473.05;;;-1.55;100.00
46241;BME280;31961;52.416;-0.732;2023-03-14T04:26:04;98478.94;;;-1.47;100.00
46241;BME280;31961;52.416;-0.732;2023-03-14T04:28:31;98489.32;;;-1.48;100.00
46241;BME280;31961;52.416;-0.732;2023-03-14T04:30:59;98485.28;;;-1.30;100.00
46241;BME280;31961;52.416;-0.732;2023-03-14T04:33:32;98497.42;;;-1.32;100.00
46241;BME280;31961;52.416;-0.732;2023-03-14T04:36:00;98503.07;;;-1.43;100.00
46241;BME280;31961;52.416;-0.732;2023-03-14T04:38:27;98508.78;;;-1.28;100.00
46241;BME280;31961;52.416;-0.732;2023-03-14T04:40:55;98515.36;;;-1.40;100.00
46241;BME280;31961;52.416;-0.732;2023-03-14T04:43:22;98527.97;;;-1.68;100.00
46241;BME280;31961;52.416;-0.732;2023-03-14T04:45:50;98533.50;;;-1.40;100.00
46241;BME280;31961;52.416;-0.732;2023-03-14T04:48:17;98537.15;;;-1.13;100.00
46241;BME280;31961;52.416;-0.732;2023-03-14T04:50:46;98541.65;;;-1.19;100.00
46241;BME280;31961;52.416;-0.732;2023-03-14T04:53:15;98545.43;;;-0.45;100.00
46241;BME280;31961;52.416;-0.732;2023-03-14T04:55:46;98553.10;;;-1.25;100.00
46241;BME280;31961;52.416;-0.732;2023-03-14T04:58:14;98557.54;;;-0.99;100.00
46241;BME280;31961;52.416;-0.732;2023-03-14T05:00:42;98563.33;;;-0.67;100.00
46241;BME280;31961;52.416;-0.732;2023-03-14T05:03:09;98573.03;;;-1.15;100.00
46241;BME280;31961;52.416;-0.732;2023-03-14T05:05:37;98575.75;;;-1.22;100.00
46241;BME280;31961;52.416;-0.732;2023-03-14T05:08:04;98580.18;;;-0.99;100.00
46241;BME280;31961;52.416;-0.732;2023-03-14T05:10:31;98585.45;;;-0.71;100.00
46241;BME280;31961;52.416;-0.732;2023-03-14T05:12:58;98596.86;;;-0.76;100.00
46241;BME280;31961;52.416;-0.732;2023-03-14T05:15:25;98607.44;;;-0.72;100.00
46241;BME280;31961;52.416;-0.732;2023-03-14T05:17:52;98610.51;;;-0.72;100.00
46241;BME280;31961;52.416;-0.732;2023-03-14T05:20:20;98615.27;;;-0.61;100.00
46241;BME280;31961;52.416;-0.732;2023-03-14T05:22:47;98622.20;;;-1.14;100.00
46241;BME280;31961;52.416;-0.732;2023-03-14T05:25:15;98631.72;;;-1.03;100.00
46241;BME280;31961;52.416;-0.732;2023-03-14T05:27:43;98640.49;;;-0.97;100.00
46241;BME280;31961;52.416;-0.732;2023-03-14T05:30:11;98654.96;;;-0.82;100.00
46241;BME280;31961;52.416;-0.732;2023-03-14T05:32:39;98659.10;;;-0.92;100.00
46241;BME280;31961;52.416;-0.732;2023-03-14T05:35:06;98667.98;;;-1.14;100.00
46241;BME280;31961;52.416;-0.732;2023-03-14T05:37:33;98679.65;;;-0.72;100.00
46241;BME280;31961;52.416;-0.732;2023-03-14T05:40:01;98689.29;;;-0.81;100.00
46241;BME280;31961;52.416;-0.732;2023-03-14T05:42:28;98699.43;;;-1.01;100.00
46241;BME280;31961;52.416;-0.732;2023-03-14T05:44:55;98708.74;;;-1.17;100.00
46241;BME280;31961;52.416;-0.732;2023-03-14T05:47:23;98721.40;;;-1.13;100.00
46241;BME280;31961;52.416;-0.732;2023-03-14T05:49:50;98728.44;;;-1.49;100.00
46241;BME280;31961;52.416;-0.732;2023-03-14T05:52:18;98742.11;;;-1.84;100.00
46241;BME280;31961;52.416;-0.732;2023-03-14T05:54:46;98744.98;;;-1.98;100.00
46241;BME280;31961;52.416;-0.732;2023-03-14T05:57:13;98754.13;;;-1.75;100.00
46241;BME280;31961;52.416;-0.732;2023-03-14T05:59:41;98760.66;;;-2.01;100.00
46241;BME280;31961;52.416;-0.732;2023-03-14T06:02:08;98775.42;;;-1.85;100.00
46241;BME280;31961;52.416;-0.732;2023-03-14T06:04:35;98778.42;;;-2.17;100.00
46241;BME280;31961;52.416;-0.732;2023-03-14T06:07:03;98788.06;;;-2.02;100.00
46241;BME280;31961;52.416;-0.732;2023-03-14T06:09:30;98798.91;;;-2.08;100.00
46241;BME280;31961;52.416;-0.732;2023-03-14T06:11:57;98806.64;;;-2.19;100.00
46241;BME280;31961;52.416;-0.732;2023-03-14T06:14:25;98815.31;;;-2.14;100.00
46241;BME280;31961;52.416;-0.732;2023-03-14T06:16:52;98822.17;;;-1.45;100.00
46241;BME280;31961;52.416;-0.732;2023-03-14T06:19:19;98829.29;;;-1.62;100.00
46241;BME280;31961;52.416;-0.732;2023-03-14T06:21:46;98838.81;;;-1.57;100.00
46241;BME280;31961;52.416;-0.732;2023-03-14T06:24:14;98849.38;;;-2.04;100.00
46241;BME280;31961;52.416;-0.732;2023-03-14T06:26:41;98858.93;;;-1.61;100.00
46241;BME280;31961;52.416;-0.732;2023-03-14T06:29:08;98864.28;;;-1.34;100.00
46241;BME280;31961;52.416;-0.732;2023-03-14T06:31:36;98874.40;;;-1.55;100.00
46241;BME280;31961;52.416;-0.732;2023-03-14T06:34:03;98887.35;;;-1.52;100.00
46241;BME280;31961;52.416;-0.732;2023-03-14T06:36:31;98897.47;;;-1.66;100.00
46241;BME280;31961;52.416;-0.732;2023-03-14T06:38:58;98907.07;;;-1.19;100.00
46241;BME280;31961;52.416;-0.732;2023-03-14T06:41:24;98913.26;;;-1.19;100.00
46241;BME280;31961;52.416;-0.732;2023-03-14T06:43:52;98921.58;;;-0.72;100.00
46241;BME280;31961;52.416;-0.732;2023-03-14T06:46:19;98935.61;;;-1.61;100.00
46241;BME280;31961;52.416;-0.732;2023-03-14T06:48:46;98948.28;;;-1.52;100.00
46241;BME280;31961;52.416;-0.732;2023-03-14T06:51:14;98957.53;;;-1.76;100.00
46241;BME280;31961;52.416;-0.732;2023-03-14T06:53:42;98971.70;;;-1.49;100.00
46241;BME280;31961;52.416;-0.732;2023-03-14T06:56:09;98983.63;;;-1.93;100.00
46241;BME280;31961;52.416;-0.732;2023-03-14T06:58:37;99000.48;;;-1.73;100.00
46241;BME280;31961;52.416;-0.732;2023-03-14T07:01:04;99008.04;;;-1.68;100.00
46241;BME280;31961;52.416;-0.732;2023-03-14T07:03:31;99014.70;;;-1.79;100.00
46241;BME280;31961;52.416;-0.732;2023-03-14T07:05:59;99022.37;;;-1.83;100.00
46241;BME280;31961;52.416;-0.732;2023-03-14T07:08:27;99031.65;;;-1.63;100.00
46241;BME280;31961;52.416;-0.732;2023-03-14T07:10:56;99042.51;;;-2.12;100.00
46241;BME280;31961;52.416;-0.732;2023-03-14T07:13:24;99053.72;;;-1.72;100.00
46241;BME280;31961;52.416;-0.732;2023-03-14T07:15:50;99061.15;;;-2.16;100.00
46241;BME280;31961;52.416;-0.732;2023-03-14T07:18:18;99073.14;;;-1.70;100.00
46241;BME280;31961;52.416;-0.732;2023-03-14T07:20:45;99082.61;;;-1.77;100.00
46241;BME280;31961;52.416;-0.732;2023-03-14T07:23:12;99092.63;;;-2.14;100.00
46241;BME280;31961;52.416;-0.732;2023-03-14T07:25:40;99099.11;;;-1.87;100.00
46241;BME280;31961;52.416;-0.732;2023-03-14T07:28:08;99111.81;;;-1.72;100.00
46241;BME280;31961;52.416;-0.732;2023-03-14T07:30:34;99118.49;;;-1.91;100.00
46241;BME280;31961;52.416;-0.732;2023-03-14T07:33:02;99129.09;;;-1.17;100.00
46241;BME280;31961;52.416;-0.732;2023-03-14T07:35:29;99141.75;;;-1.80;100.00
46241;BME280;31961;52.416;-0.732;2023-03-14T07:37:56;99156.16;;;-2.26;100.00
46241;BME280;31961;52.416;-0.732;2023-03-14T07:40:22;99167.33;;;-2.06;100.00
46241;BME280;31961;52.416;-0.732;2023-03-14T07:42:50;99169.69;;;-1.62;100.00
46241;BME280;31961;52.416;-0.732;2023-03-14T07:45:17;99175.12;;;-1.93;100.00
46241;BME280;31961;52.416;-0.732;2023-03-14T07:47:44;99185.50;;;-1.35;100.00
46241;BME280;31961;52.416;-0.732;2023-03-14T07:50:11;99189.06;;;-1.83;100.00
46241;BME280;31961;52.416;-0.732;2023-03-14T07:52:39;99196.05;;;-1.26;100.00
46241;BME280;31961;52.416;-0.732;2023-03-14T07:55:07;99201.49;;;-1.05;100.00
46241;BME280;31961;52.416;-0.732;2023-03-14T07:57:35;99211.82;;;-1.58;100.00
46241;BME280;31961;52.416;-0.732;2023-03-14T08:00:02;99220.31;;;-1.04;100.00
46241;BME280;31961;52.416;-0.732;2023-03-14T08:02:30;99223.90;;;-1.14;100.00
46241;BME280;31961;52.416;-0.732;2023-03-14T08:04:57;99229.52;;;-0.99;100.00
46241;BME280;31961;52.416;-0.732;2023-03-14T08:07:24;99235.99;;;-0.65;100.00
46241;BME280;31961;52.416;-0.732;2023-03-14T08:09:52;99239.19;;;-0.52;100.00
46241;BME280;31961;52.416;-0.732;2023-03-14T08:12:19;99250.63;;;-0.72;100.00
46241;BME280;31961;52.416;-0.732;2023-03-14T08:14:47;99260.03;;;-0.02;100.00
46241;BME280;31961;52.416;-0.732;2023-03-14T08:17:14;99265.97;;;-0.02;100.00
46241;BME280;31961;52.416;-0.732;2023-03-14T08:19:42;99266.79;;;-0.54;100.00
46241;BME280;31961;52.416;-0.732;2023-03-14T08:22:09;99277.43;;;-0.60;100.00
46241;BME280;31961;52.416;-0.732;2023-03-14T08:24:37;99291.80;;;-0.41;100.00
46241;BME280;31961;52.416;-0.732;2023-03-14T08:27:04;99309.32;;;-1.27;100.00
46241;BME280;31961;52.416;-0.732;2023-03-14T08:29:31;99312.95;;;-0.83;100.00
46241;BME280;31961;52.416;-0.732;2023-03-14T08:31:59;99319.55;;;-1.19;100.00
46241;BME280;31961;52.416;-0.732;2023-03-14T08:34:26;99322.13;;;-0.74;100.00
46241;BME280;31961;52.416;-0.732;2023-03-14T08:36:53;99327.50;;;-1.06;100.00
46241;BME280;31961;52.416;-0.732;2023-03-14T08:39:20;99333.32;;;-0.71;100.00
46241;BME280;31961;52.416;-0.732;2023-03-14T08:41:49;99333.86;;;-0.44;100.00
46241;BME280;31961;52.416;-0.732;2023-03-14T09:17:16;99452.97;;;-0.27;100.00
46241;BME280;31961;52.416;-0.732;2023-03-14T09:19:43;99453.95;;;-1.01;100.00
46241;BME280;31961;52.416;-0.732;2023-03-14T09:22:11;99466.65;;;-1.15;100.00
46241;BME280;31961;52.416;-0.732;2023-03-14T09:24:40;99474.37;;;-1.01;100.00
46241;BME280;31961;52.416;-0.732;2023-03-14T09:27:08;99482.05;;;-1.12;100.00
46241;BME280;31961;52.416;-0.732;2023-03-14T09:29:35;99493.25;;;-0.85;100.00
46241;BME280;31961;52.416;-0.732;2023-03-14T09:32:02;99491.54;;;-1.04;100.00
46241;BME280;31961;52.416;-0.732;2023-03-14T09:34:30;99492.02;;;-0.62;100.00
46241;BME280;31961;52.416;-0.732;2023-03-14T09:36:57;99498.58;;;-0.47;100.00
46241;BME280;31961;52.416;-0.732;2023-03-14T09:39:24;99504.61;;;-0.59;100.00
46241;BME280;31961;52.416;-0.732;2023-03-14T09:41:53;99511.89;;;-0.75;100.00
46241;BME280;31961;52.416;-0.732;2023-03-14T09:44:25;99513.76;;;-0.92;100.00
46241;BME280;31961;52.416;-0.732;2023-03-14T09:46:57;99521.88;;;-0.33;100.00
46241;BME280;31961;52.416;-0.732;2023-03-14T09:49:29;99526.34;;;-0.35;100.00
46241;BME280;31961;52.416;-0.732;2023-03-14T09:52:00;99529.39;;;-0.29;100.00
46241;BME280;31961;52.416;-0.732;2023-03-14T09:54:34;99529.17;;;-0.18;100.00
46241;BME280;31961;52.416;-0.732;2023-03-14T09:57:03;99537.60;;;-0.18;100.00
46241;BME280;31961;52.416;-0.732;2023-03-14T09:59:31;99548.99;;;0.45;100.00
46241;BME280;31961;52.416;-0.732;2023-03-14T10:02:02;99554.38;;;0.03;100.00
46241;BME280;31961;52.416;-0.732;2023-03-14T10:04:39;99557.89;;;0.37;100.00
46241;BME280;31961;52.416;-0.732;2023-03-14T10:07:08;99564.81;;;0.06;100.00
46241;BME280;31961;52.416;-0.732;2023-03-14T10:09:37;99577.96;;;0.34;100.00
46241;BME280;31961;52.416;-0.732;2023-03-14T10:12:07;99590.59;;;0.51;100.00
46241;BME280;31961;52.416;-0.732;2023-03-14T10:14:36;99590.80;;;0.11;100.00
46241;BME280;31961;52.416;-0.732;2023-03-14T10:17:06;99601.47;;;0.28;100.00
46241;BME280;31961;52.416;-0.732;2023-03-14T10:19:34;99606.25;;;0.35;100.00
46241;BME280;31961;52.416;-0.732;2023-03-14T10:22:03;99608.29;;;0.74;100.00
46241;BME280;31961;52.416;-0.732;2023-03-14T10:24:32;99607.53;;;0.68;100.00
46241;BME280;31961;52.416;-0.732;2023-03-14T10:27:01;99614.66;;;0.82;100.00
46241;BME280;31961;52.416;-0.732;2023-03-14T10:29:51;99614.01;;;0.34;100.00
46241;BME280;31961;52.416;-0.732;2023-03-14T10:32:20;99620.28;;;0.41;100.00
46241;BME280;31961;52.416;-0.732;2023-03-14T10:35:07;99618.23;;;0.71;100.00
46241;BME280;31961;52.416;-0.732;2023-03-14T10:37:35;99624.94;;;0.60;100.00
46241;BME280;31961;52.416;-0.732;2023-03-14T10:40:04;99621.00;;;0.50;100.00
46241;BME280;31961;52.416;-0.732;2023-03-14T10:42:33;99626.49;;;0.71;100.00
46241;BME280;31961;52.416;-0.732;2023-03-14T10:45:04;99633.63;;;1.02;100.00
46241;BME280;31961;52.416;-0.732;2023-03-14T10:47:33;99640.79;;;0.22;100.00
46241;BME280;31961;52.416;-0.732;2023-03-14T10:50:23;99642.30;;;0.70;100.00
46241;BME280;31961;52.416;-0.732;2023-03-14T10:52:52;99652.34;;;0.75;100.00
46241;BME280;31961;52.416;-0.732;2023-03-14T10:55:20;99655.56;;;0.55;100.00
46241;BME280;31961;52.416;-0.732;2023-03-14T10:57:47;99657.94;;;0.99;100.00
46241;BME280;31961;52.416;-0.732;2023-03-14T11:00:17;99667.69;;;1.16;100.00
46241;BME280;31961;52.416;-0.732;2023-03-14T11:02:55;99669.97;;;0.86;100.00
46241;BME280;31961;52.416;-0.732;2023-03-14T11:05:30;99675.61;;;1.13;100.00
46241;BME280;31961;52.416;-0.732;2023-03-14T11:08:03;99678.77;;;1.55;100.00
46241;BME280;31961;52.416;-0.732;2023-03-14T11:10:35;99686.66;;;1.67;100.00
46241;BME280;31961;52.416;-0.732;2023-03-14T11:13:14;99692.07;;;1.66;100.00
46241;BME280;31961;52.416;-0.732;2023-03-14T11:15:55;99697.85;;;1.75;100.00
46241;BME280;31961;52.416;-0.732;2023-03-14T11:18:43;99700.68;;;1.74;100.00
46241;BME280;31961;52.416;-0.732;2023-03-14T11:21:15;99702.13;;;0.87;100.00
46241;BME280;31961;52.416;-0.732;2023-03-14T11:23:52;99710.53;;;0.80;100.00
46241;BME280;31961;52.416;-0.732;2023-03-14T11:26:29;99713.82;;;1.60;100.00
46241;BME280;31961;52.416;-0.732;2023-03-14T11:29:08;99720.50;;;1.55;100.00
46241;BME280;31961;52.416;-0.732;2023-03-14T11:31:40;99727.10;;;1.40;100.00
46241;BME280;31961;52.416;-0.732;2023-03-14T11:34:15;99733.13;;;1.45;100.00
46241;BME280;31961;52.416;-0.732;2023-03-14T11:36:49;99735.26;;;1.17;100.00
46241;BME280;31961;52.416;-0.732;2023-03-14T11:39:19;99732.56;;;1.65;100.00
46241;BME280;31961;52.416;-0.732;2023-03-14T11:41:49;99729.81;;;1.13;100.00
46241;BME280;31961;52.416;-0.732;2023-03-14T11:44:20;99736.05;;;1.07;100.00
46241;BME280;31961;52.416;-0.732;2023-03-14T11:46:52;99738.13;;;1.96;100.00
46241;BME280;31961;52.416;-0.732;2023-03-14T11:49:31;99745.49;;;1.70;100.00
46241;BME280;31961;52.416;-0.732;2023-03-14T11:52:04;99747.14;;;1.53;100.00
46241;BME280;31961;52.416;-0.732;2023-03-14T11:54:39;99747.42;;;1.81;100.00
46241;BME280;31961;52.416;-0.732;2023-03-14T11:57:11;99753.07;;;1.83;100.00
46241;BME280;31961;52.416;-0.732;2023-03-14T11:59:47;99752.11;;;2.09;100.00
46241;BME280;31961;52.416;-0.732;2023-03-14T12:02:22;99764.19;;;1.42;100.00
46241;BME280;31961;52.416;-0.732;2023-03-14T12:06:06;99764.68;;;1.56;100.00
46241;BME280;31961;52.416;-0.732;2023-03-14T12:08:43;99765.16;;;1.47;100.00
46241;BME280;31961;52.416;-0.732;2023-03-14T12:11:20;99777.24;;;2.03;100.00
46241;BME280;31961;52.416;-0.732;2023-03-14T12:13:50;99777.18;;;1.97;100.00
46241;BME280;31961;52.416;-0.732;2023-03-14T12:16:33;99786.75;;;2.03;100.00
46241;BME280;31961;52.416;-0.732;2023-03-14T12:19:37;99783.66;;;3.02;100.00
46241;BME280;31961;52.416;-0.732;2023-03-14T12:22:16;99791.46;;;2.83;100.00
46241;BME280;31961;52.416;-0.732;2023-03-14T12:24:49;99800.90;;;2.45;100.00
46241;BME280;31961;52.416;-0.732;2023-03-14T12:27:49;99796.77;;;2.60;100.00
46241;BME280;31961;52.416;-0.732;2023-03-14T12:30:30;99804.39;;;2.17;100.00
46241;BME280;31961;52.416;-0.732;2023-03-14T12:33:31;99816.27;;;2.28;100.00
46241;BME280;31961;52.416;-0.732;2023-03-14T12:36:01;99809.34;;;2.79;100.00
46241;BME280;31961;52.416;-0.732;2023-03-14T12:38:42;99815.53;;;2.09;100.00
46241;BME280;31961;52.416;-0.732;2023-03-14T12:41:16;99812.25;;;2.96;100.00
46241;BME280;31961;52.416;-0.732;2023-03-14T12:43:44;99807.68;;;3.03;100.00
46241;BME280;31961;52.416;-0.732;2023-03-14T12:46:20;99809.11;;;3.52;100.00
46241;BME280;31961;52.416;-0.732;2023-03-14T12:48:49;99816.91;;;3.39;100.00
46241;BME280;31961;52.416;-0.732;2023-03-14T12:51:18;99814.84;;;3.30;100.00
46241;BME280;31961;52.416;-0.732;2023-03-14T12:54:00;99813.71;;;3.72;100.00
46241;BME280;31961;52.416;-0.732;2023-03-14T12:56:44;99811.10;;;4.20;100.00
46241;BME280;31961;52.416;-0.732;2023-03-14T12:59:34;99813.38;;;3.95;100.00
46241;BME280;31961;52.416;-0.732;2023-03-14T13:02:18;99809.45;;;4.04;100.00
46241;BME280;31961;52.416;-0.732;2023-03-14T13:04:49;99805.41;;;3.21;100.00
46241;BME280;31961;52.416;-0.732;2023-03-14T13:07:32;99811.35;;;2.65;100.00
46241;BME280;31961;52.416;-0.732;2023-03-14T13:10:03;99814.50;;;3.09;100.00
46241;BME280;31961;52.416;-0.732;2023-03-14T13:12:47;99818.95;;;2.60;100.00
46241;BME280;31961;52.416;-0.732;2023-03-14T13:15:18;99812.95;;;3.06;100.00
46241;BME280;31961;52.416;-0.732;2023-03-14T13:17:48;99808.09;;;2.67;100.00
46241;BME280;31961;52.416;-0.732;2023-03-14T13:20:22;99806.51;;;3.17;100.00
46241;BME280;31961;52.416;-0.732;2023-03-14T13:22:51;99815.25;;;3.66;100.00
46241;BME280;31961;52.416;-0.732;2023-03-14T13:25:19;99825.80;;;2.97;100.00
46241;BME280;31961;52.416;-0.732;2023-03-14T13:27:47;99821.72;;;2.86;100.00
46241;BME280;31961;52.416;-0.732;2023-03-14T13:30:20;99831.13;;;2.54;100.00
46241;BME280;31961;52.416;-0.732;2023-03-14T13:32:48;99826.33;;;2.54;100.00